KESF/ESF METAR and TAF weather

Enter ICAO airport designator
Station Type Date Time Source
KESF METAR 2021/05/15 01:53 UTC NOAA

KESF 150153Z AUTO 00000KT 10SM CLR 17/15 A3017 RMK AO2 SLP214 T01720150


Station Type Date Time Source
KESF Decoded METAR 2021/05/15 01:53 UTC NOAA

ALEXANDRIA ESLER RGNL AIRPORT , LA, United States (KESF) 31-24N 092-18W 28M
May 14, 2021 - 09:53 PM EDT / 2021.05.15 0153 UTC
Wind: Calm:0
Visibility: 10 mile(s):0
Sky conditions: clear
Temperature: 63.0 F (17.2 C)
Dew Point: 59.0 F (15.0 C)
Relative Humidity: 86%
Pressure (altimeter): 30.17 in. Hg (1021 hPa)
ob: KESF 150153Z AUTO 00000KT 10SM CLR 17/15 A3017 RMK AO2 SLP214 T01720150
cycle: 2

Station Type Date Time Source
KESF TAF UTC NOAA

Error!

Example: see airport list